Time;durP1;ratioP1;P1;durP2;ratioP2;P2;SDS_P1;SDS_P2;PMS_P1;PMS_P2;Temp;Humidity;BMP_temperature;BMP_pressure;BME280_temperature;BME280_humidity;BME280_pressure;Samples;Min_cycle;Max_cycle;Signal;HPM_P1;HPM_P2
2022/08/08 04:16:35;;;;;;;10.63;7.97;;;;;;;13.12;75.29;100676.13;5454917;23;20127;-63
2022/08/08 04:19:02;;;;;;;6.72;4.88;;;;;;;13.16;76.09;100684.59;4996904;28;20053;-65
2022/08/08 04:21:27;;;;;;;7.20;4.05;;;;;;;13.16;76.85;100674.72;4980944;28;20049;-63
2022/08/08 04:23:57;;;;;;;2.90;1.85;;;;;;;13.15;76.55;100677.59;4997060;28;20053;-63
2022/08/08 04:26:22;;;;;;;2.90;2.40;;;;;;;13.04;76.83;100676.19;4997057;28;20034;-64
2022/08/08 04:28:48;;;;;;;2.22;1.90;;;;;;;13.10;76.68;100679.97;4997080;28;20026;-64
2022/08/08 04:31:14;;;;;;;3.40;2.05;;;;;;;13.12;75.95;100676.13;4981156;23;20055;-68
2022/08/08 04:33:39;;;;;;;5.28;2.03;;;;;;;13.15;74.86;100675.75;4956592;28;20561;-68
2022/08/08 04:36:05;;;;;;;1.75;1.40;;;;;;;13.12;74.32;100686.00;4955331;29;20070;-68
2022/08/08 04:38:31;;;;;;;2.42;1.38;;;;;;;13.02;74.78;100695.06;4956535;28;20031;-68
2022/08/08 04:40:58;;;;;;;1.75;1.40;;;;;;;12.99;74.86;100694.59;4954765;29;20050;-68
2022/08/08 04:43:24;;;;;;;2.63;1.75;;;;;;;12.94;75.28;100689.78;4955236;29;20125;-67
2022/08/08 04:45:53;;;;;;;1.95;1.38;;;;;;;12.97;75.29;100692.09;4955180;29;20122;-68
2022/08/08 04:48:19;;;;;;;1.73;1.30;;;;;;;13.01;75.22;100697.94;4955118;29;20130;-67
2022/08/08 04:50:45;;;;;;;3.22;1.42;;;;;;;13.03;74.71;100702.06;4954559;29;20405;-68
2022/08/08 04:53:13;;;;;;;2.45;1.65;;;;;;;13.00;74.77;100704.28;4954907;29;20035;-66
2022/08/08 04:55:40;;;;;;;2.40;1.33;;;;;;;13.02;74.43;100702.25;4954942;29;20411;-67
2022/08/08 04:58:06;;;;;;;6.03;1.48;;;;;;;13.03;74.36;100703.91;4954848;29;20041;-68
2022/08/08 05:00:31;;;;;;;4.05;1.40;;;;;;;13.08;75.15;100708.75;4954259;28;20039;-66
2022/08/08 05:02:57;;;;;;;2.58;1.60;;;;;;;13.15;74.68;100726.56;4954652;29;20039;-51
2022/08/08 05:05:23;;;;;;;2.67;1.35;;;;;;;13.14;75.08;100724.91;4954837;29;20381;-46
2022/08/08 05:07:49;;;;;;;2.65;1.48;;;;;;;13.19;74.91;100719.88;4955999;28;20127;-48
2022/08/08 05:10:14;;;;;;;1.58;1.30;;;;;;;13.25;75.37;100727.19;4954458;29;20460;-47
2022/08/08 05:12:41;;;;;;;4.35;1.65;;;;;;;13.32;75.69;100721.97;4954720;28;20039;-46
2022/08/08 05:15:07;;;;;;;2.75;1.50;;;;;;;13.38;75.62;100731.13;4954588;28;20043;-46
2022/08/08 05:17:32;;;;;;;2.33;1.60;;;;;;;13.45;75.57;100732.06;4955732;28;20039;-52
2022/08/08 05:19:58;;;;;;;2.53;1.38;;;;;;;13.57;74.10;100735.97;4954171;29;20047;-47
2022/08/08 05:22:34;;;;;;;1.70;1.40;;;;;;;13.66;73.37;100740.25;4954499;29;20035;-51
2022/08/08 05:25:01;;;;;;;1.92;1.30;;;;;;;13.79;71.81;100737.78;4954389;29;20404;-48
2022/08/08 05:27:27;;;;;;;1.45;1.30;;;;;;;13.98;70.32;100743.63;4954389;29;20023;-47
2022/08/08 05:29:52;;;;;;;2.13;1.30;;;;;;;14.09;69.56;100740.50;4955127;28;20098;-46
2022/08/08 05:32:22;;;;;;;2.80;1.55;;;;;;;14.19;69.19;100748.25;4954278;29;20516;-46
2022/08/08 05:34:49;;;;;;;3.13;1.30;;;;;;;14.27;69.41;100742.78;4954175;28;20047;-52
2022/08/08 05:37:26;;;;;;;2.97;1.83;;;;;;;14.42;68.82;100750.84;4954121;29;20069;-49
2022/08/08 05:39:55;;;;;;;4.80;1.20;;;;;;;14.50;67.33;100748.09;4953684;29;20050;-48
2022/08/08 05:42:41;;;;;;;3.58;1.30;;;;;;;14.69;66.55;100752.03;4955324;28;20128;-46
2022/08/08 05:45:11;;;;;;;2.13;1.10;;;;;;;14.78;65.72;100745.53;4954055;29;20059;-44
2022/08/08 05:47:40;;;;;;;2.08;1.40;;;;;;;14.90;64.83;100750.22;4954062;29;20086;-47
2022/08/08 05:50:07;;;;;;;2.15;1.30;;;;;;;15.07;63.48;100750.00;4969516;28;20039;-49
2022/08/08 05:52:34;;;;;;;1.73;1.17;;;;;;;15.18;62.94;100752.16;4955261;28;20107;-50
2022/08/08 05:55:01;;;;;;;2.38;1.88;;;;;;;15.35;61.30;100752.75;4970038;28;20117;-48
2022/08/08 05:57:30;;;;;;;3.97;1.20;;;;;;;15.45;61.31;100753.25;4953801;29;20035;-52
2022/08/08 05:59:57;;;;;;;1.50;1.08;;;;;;;15.61;60.88;100755.66;4954679;28;20045;-47
2022/08/08 06:05:21;;;;;;;1.85;1.10;;;;;;;15.91;59.13;100758.19;4954067;29;20035;-46
2022/08/08 06:07:49;;;;;;;2.17;1.27;;;;;;;16.01;57.65;100762.19;4953575;29;20463;-45
2022/08/08 06:10:15;;;;;;;1.83;0.98;;;;;;;16.14;58.16;100755.25;4969376;28;20035;-49
2022/08/08 06:12:42;;;;;;;1.80;1.10;;;;;;;16.33;56.07;100773.38;4953111;28;20039;-48
2022/08/08 06:15:10;;;;;;;2.00;1.15;;;;;;;16.43;55.69;100773.84;4953494;29;20027;-50
2022/08/08 06:17:39;;;;;;;1.10;0.88;;;;;;;16.53;55.67;100778.84;4953450;29;20043;-57
2022/08/08 06:20:10;;;;;;;;;;;;;;;16.60;55.51;100768.94;4953393;29;20039;-59
2022/08/08 06:22:36;;;;;;;5.82;1.35;;;;;;;16.74;54.71;100772.56;4953608;29;19924;-57
2022/08/08 06:25:08;;;;;;;2.67;1.08;;;;;;;16.82;54.41;100772.38;4969479;28;20101;-58
2022/08/08 06:27:56;;;;;;;1.58;1.08;;;;;;;16.92;54.42;100761.25;4954624;28;20070;-60
2022/08/08 06:30:23;;;;;;;2.15;0.90;;;;;;;16.97;54.52;100772.25;4952620;29;20585;-58
2022/08/08 06:32:56;;;;;;;1.52;1.00;;;;;;;17.03;54.25;100774.94;4953190;29;20078;-60
2022/08/08 06:35:24;;;;;;;1.73;1.00;;;;;;;17.13;53.87;100777.22;4953155;29;20408;-59
2022/08/08 06:38:20;;;;;;;1.27;1.00;;;;;;;17.18;53.62;100782.03;4969084;28;20059;-59
2022/08/08 06:40:54;;;;;;;2.72;1.30;;;;;;;17.25;53.56;100780.16;4952484;29;20575;-60
2022/08/08 06:43:25;;;;;;;2.22;1.08;;;;;;;17.41;52.79;100776.25;4953204;29;20098;-56
2022/08/08 06:45:56;;;;;;;2.03;0.90;;;;;;;17.50;52.01;100783.94;4952950;29;20065;-60
2022/08/08 06:48:22;;;;;;;0.90;0.80;;;;;;;17.55;51.26;100780.63;4954133;28;20555;-60
2022/08/08 06:50:48;;;;;;;1.40;0.80;;;;;;;17.61;51.03;100786.03;4952366;29;20024;-59
2022/08/08 06:53:16;;;;;;;0.93;0.80;;;;;;;17.68;50.24;100782.50;4952699;29;20062;-58
2022/08/08 06:55:45;;;;;;;3.10;1.00;;;;;;;17.77;50.36;100778.59;4968726;28;20070;-59
2022/08/08 06:58:11;;;;;;;3.15;0.90;;;;;;;17.83;50.64;100785.84;4968758;28;20039;-58
2022/08/08 07:00:41;;;;;;;1.63;0.90;;;;;;;17.92;50.26;100783.75;4952141;29;20559;-60
2022/08/08 07:03:15;;;;;;;3.15;1.20;;;;;;;18.05;50.51;100789.97;4952525;29;20134;-58
2022/08/08 07:05:48;;;;;;;1.77;0.95;;;;;;;18.17;50.48;100793.69;4952517;29;20042;-57
2022/08/08 07:08:21;;;;;;;2.13;1.30;;;;;;;18.22;50.09;100790.38;4953715;28;20035;-57
2022/08/08 07:10:55;;;;;;;1.90;1.20;;;;;;;18.35;49.32;100787.66;4952109;29;20069;-60
2022/08/08 07:13:26;;;;;;;1.90;1.48;;;;;;;18.42;49.28;100787.63;4952631;29;20496;-60
2022/08/08 07:16:02;;;;;;;1.73;1.00;;;;;;;18.49;49.18;100793.00;4952347;29;20043;-60
2022/08/08 07:18:56;;;;;;;3.50;1.00;;;;;;;18.52;48.53;100804.22;4952676;29;20452;-60
2022/08/08 07:21:31;;;;;;;2.05;0.90;;;;;;;18.60;48.63;100797.75;4951857;29;20087;-60
2022/08/08 07:24:06;;;;;;;2.47;0.80;;;;;;;18.73;48.36;100796.91;4951376;28;20031;-60
2022/08/08 07:26:40;;;;;;;3.25;0.88;;;;;;;18.84;48.57;100798.94;4952101;29;20039;-60
2022/08/08 07:29:08;;;;;;;1.77;0.98;;;;;;;18.96;47.94;100797.22;4951876;29;20078;-57
2022/08/08 07:31:35;;;;;;;3.17;1.13;;;;;;;19.04;48.11;100793.44;4951988;28;20035;-59
2022/08/08 07:34:01;;;;;;;2.35;0.90;;;;;;;19.14;47.43;100791.94;4952162;29;20126;-60
2022/08/08 07:36:30;;;;;;;1.35;0.90;;;;;;;19.29;46.80;100796.22;4951997;29;20087;-59
2022/08/08 07:38:57;;;;;;;2.30;1.17;;;;;;;19.39;47.13;100797.41;4951827;29;20047;-58
2022/08/08 07:41:25;;;;;;;1.98;0.90;;;;;;;19.47;46.96;100799.84;4951682;29;20043;-59
2022/08/08 07:43:57;;;;;;;2.55;1.00;;;;;;;19.50;45.71;100794.00;4952136;29;20412;-60
2022/08/08 07:46:23;;;;;;;2.03;1.20;;;;;;;19.60;45.65;100792.72;4968024;28;20070;-58
2022/08/08 07:48:49;;;;;;;2.38;1.10;;;;;;;19.64;46.37;100800.16;4951979;29;20043;-60
2022/08/08 07:51:16;;;;;;;0.93;0.85;;;;;;;19.77;45.92;100794.66;4951795;29;20023;-59
2022/08/08 07:53:48;;;;;;;3.28;1.00;;;;;;;19.96;45.73;100797.44;4951942;29;20039;-60
2022/08/08 07:56:16;;;;;;;2.20;0.95;;;;;;;19.99;45.83;100797.78;4953361;28;20035;-60
2022/08/08 07:58:44;;;;;;;3.67;1.00;;;;;;;20.23;45.16;100800.69;4967941;28;20504;-60
2022/08/08 08:01:19;;;;;;;2.40;0.93;;;;;;;20.25;44.60;100796.72;4951442;29;20516;-60
2022/08/08 08:04:02;;;;;;;2.88;1.00;;;;;;;20.39;43.89;100800.09;4951861;29;20042;-60
2022/08/08 08:06:32;;;;;;;3.75;1.10;;;;;;;20.47;44.31;100805.25;4951872;29;20457;-61
2022/08/08 08:09:20;;;;;;;3.53;0.90;;;;;;;20.59;44.76;100803.44;4951736;29;20126;-60
2022/08/08 08:11:48;;;;;;;1.25;0.90;;;;;;;20.69;44.02;100805.63;4951817;29;20050;-60
2022/08/08 08:14:22;;;;;;;6.05;1.25;;;;;;;20.84;43.33;100810.66;4951679;29;20031;-59
2022/08/08 08:16:48;;;;;;;3.60;1.00;;;;;;;20.89;43.49;100802.69;4951781;29;20643;-61
2022/08/08 08:19:16;;;;;;;2.22;0.90;;;;;;;21.00;43.52;100801.09;4952607;28;20114;-60
2022/08/08 08:21:44;;;;;;;2.38;0.88;;;;;;;21.14;43.28;100802.56;4953186;28;20039;-60
2022/08/08 08:24:15;;;;;;;1.40;0.95;;;;;;;21.30;43.68;100801.13;4951717;29;20047;-59
2022/08/08 08:26:41;;;;;;;1.98;1.02;;;;;;;21.47;42.65;100801.31;4951770;29;20062;-60
2022/08/08 08:29:08;;;;;;;5.00;1.20;;;;;;;21.56;42.50;100802.63;4951338;29;20389;-61
2022/08/08 08:31:35;;;;;;;1.20;1.10;;;;;;;21.71;41.61;100807.59;4951543;29;20137;-61
2022/08/08 08:34:01;;;;;;;1.10;1.00;;;;;;;21.81;41.76;100805.97;4951502;28;20058;-60
2022/08/08 08:36:27;;;;;;;1.90;0.90;;;;;;;21.92;41.80;100796.19;4954722;28;20129;-59
2022/08/08 08:38:54;;;;;;;1.40;0.80;;;;;;;22.03;42.46;100792.66;4956603;28;20031;-61
2022/08/08 08:41:28;;;;;;;1.00;0.90;;;;;;;22.15;41.72;100804.34;4954789;29;20039;-58
2022/08/08 08:43:53;;;;;;;2.65;0.88;;;;;;;22.31;41.62;100796.59;4955117;29;20067;-60
2022/08/08 08:46:19;;;;;;;3.85;1.30;;;;;;;22.42;41.76;100799.25;4955005;29;20047;-60
2022/08/08 08:48:46;;;;;;;1.30;0.93;;;;;;;22.59;41.71;100804.81;4938847;29;20039;-61
2022/08/08 08:51:14;;;;;;;3.33;1.10;;;;;;;22.72;40.39;100795.56;4954764;29;20035;-61
2022/08/08 08:53:50;;;;;;;4.88;1.30;;;;;;;22.79;40.23;100801.69;4954847;29;20290;-60
2022/08/08 08:56:21;;;;;;;1.20;1.10;;;;;;;22.99;40.50;100802.13;4954883;29;20043;-61
2022/08/08 08:58:48;;;;;;;1.45;1.02;;;;;;;23.11;40.38;100799.34;4954759;29;20035;-61
2022/08/08 09:01:24;;;;;;;1.13;1.02;;;;;;;23.32;40.52;100800.56;4954521;29;20519;-61
2022/08/08 09:03:54;;;;;;;2.47;0.98;;;;;;;23.63;40.80;100795.69;4954783;29;20039;-61
2022/08/08 09:06:27;;;;;;;1.70;1.10;;;;;;;23.67;39.05;100786.81;4954642;29;20042;-61
2022/08/08 09:09:04;;;;;;;2.28;1.15;;;;;;;23.83;39.14;100793.31;4954557;29;20039;-61
2022/08/08 09:11:33;;;;;;;1.08;0.98;;;;;;;23.96;39.05;100792.97;4954569;29;20087;-61
2022/08/08 09:14:01;;;;;;;1.40;0.90;;;;;;;24.21;38.61;100792.53;4970625;28;20051;-58
2022/08/08 09:16:29;;;;;;;1.40;1.10;;;;;;;24.44;38.71;100796.13;4955887;28;20039;-59
2022/08/08 09:18:56;;;;;;;2.80;1.20;;;;;;;24.53;38.68;100791.91;4970449;28;20110;-60
2022/08/08 09:21:23;;;;;;;1.10;1.00;;;;;;;24.71;38.22;100796.22;4954090;29;20283;-57
2022/08/08 09:23:49;;;;;;;2.17;1.20;;;;;;;24.88;37.81;100788.78;4955699;28;20097;-60
2022/08/08 09:26:44;;;;;;;1.45;1.10;;;;;;;25.05;37.61;100792.31;4955950;28;20110;-61
2022/08/08 09:29:20;;;;;;;2.53;1.30;;;;;;;25.19;37.96;100791.91;4953075;29;20039;-58
2022/08/08 09:31:54;;;;;;;2.97;1.30;;;;;;;25.49;38.03;100785.91;4954276;29;20200;-60
2022/08/08 09:34:24;;;;;;;1.45;1.10;;;;;;;25.62;37.09;100789.03;4970321;28;20035;-61
2022/08/08 09:36:59;;;;;;;4.30;1.33;;;;;;;25.89;36.49;100785.47;4954385;29;20056;-59
2022/08/08 09:39:29;;;;;;;2.63;1.20;;;;;;;26.09;37.11;100791.06;4953738;29;20035;-61
2022/08/08 09:42:02;;;;;;;2.42;1.20;;;;;;;26.12;36.92;100779.59;4954078;29;20532;-61
2022/08/08 09:44:33;;;;;;;2.30;1.23;;;;;;;26.48;36.54;100785.31;4955378;28;20047;-62
2022/08/08 09:47:04;;;;;;;3.03;1.42;;;;;;;26.63;36.21;100785.38;4954466;28;20042;-60
2022/08/08 09:49:31;;;;;;;2.05;1.23;;;;;;;26.96;35.46;100784.13;4954993;28;20039;-62
2022/08/08 09:51:57;;;;;;;1.35;1.20;;;;;;;27.15;34.82;100780.91;4955203;28;20042;-63
2022/08/08 09:54:33;;;;;;;1.83;1.30;;;;;;;27.34;35.05;100786.69;4955026;28;20053;-61
2022/08/08 09:57:01;;;;;;;2.17;1.30;;;;;;;27.56;34.19;100773.56;4955126;28;20034;-61
2022/08/08 09:59:30;;;;;;;1.38;1.20;;;;;;;27.92;34.84;100773.59;4954583;28;20039;-60
2022/08/08 10:01:58;;;;;;;1.50;1.15;;;;;;;28.09;33.04;100768.63;4955015;28;20050;-62
2022/08/08 10:04:26;;;;;;;2.63;1.25;;;;;;;28.26;32.51;100765.59;4954975;28;20043;-62
2022/08/08 10:06:52;;;;;;;1.95;1.38;;;;;;;28.43;31.80;100768.84;4954886;28;20082;-62
2022/08/08 10:09:32;;;;;;;1.77;1.10;;;;;;;28.60;32.95;100766.56;4954572;28;20496;-59
2022/08/08 10:12:03;;;;;;;2.17;1.25;;;;;;;28.89;32.24;100765.91;4954570;28;20425;-63
2022/08/08 10:14:36;;;;;;;1.70;1.27;;;;;;;29.03;31.80;100768.88;4954484;28;20122;-62
2022/08/08 10:17:06;;;;;;;1.50;1.20;;;;;;;28.96;31.64;100762.88;4954617;29;20404;-63
2022/08/08 10:19:36;;;;;;;2.25;1.25;;;;;;;29.32;30.77;100763.44;4954143;28;20058;-61
2022/08/08 10:22:03;;;;;;;2.22;1.30;;;;;;;29.48;31.16;100745.78;4954889;28;20135;-63
2022/08/08 10:24:31;;;;;;;1.25;1.15;;;;;;;29.86;30.40;100752.28;4954655;28;20047;-61
2022/08/08 10:27:00;;;;;;;;;;;;;;;29.95;30.47;100741.53;4955098;28;20035;-63
2022/08/08 10:30:04;;;;;;;2.88;1.30;;;;;;;30.34;29.20;100752.38;4954069;28;20357;-63
2022/08/08 10:32:31;;;;;;;3.10;1.15;;;;;;;30.50;27.86;100748.31;4954914;28;20042;-58
2022/08/08 10:34:59;;;;;;;1.15;0.90;;;;;;;30.70;27.77;100755.50;4954396;28;20050;-56
2022/08/08 10:37:35;;;;;;;1.48;1.33;;;;;;;30.69;27.39;100747.56;4954521;28;20412;-57
2022/08/08 10:40:13;;;;;;;1.63;1.13;;;;;;;31.07;27.59;100738.22;4953954;28;20485;-57
2022/08/08 10:42:39;;;;;;;2.15;1.30;;;;;;;31.05;26.91;100745.97;4954280;28;20058;-52
2022/08/08 10:45:07;;;;;;;1.83;0.88;;;;;;;31.06;26.49;100747.59;4953955;28;20034;-53
2022/08/08 10:47:33;;;;;;;1.38;1.08;;;;;;;30.90;25.92;100743.41;4954178;28;20035;-56
2022/08/08 10:50:04;;;;;;;4.07;1.55;;;;;;;31.57;27.07;100741.28;4953821;28;20050;-56
2022/08/08 10:52:32;;;;;;;2.05;1.00;;;;;;;31.70;24.74;100731.44;4953985;28;20043;-56
2022/08/08 10:55:27;;;;;;;2.95;1.48;;;;;;;31.83;24.98;100735.38;4953922;28;20126;-57
2022/08/08 10:57:53;;;;;;;0.93;0.85;;;;;;;32.40;24.84;100735.91;4945194;28;20405;-57
2022/08/08 11:00:21;;;;;;;1.00;0.90;;;;;;;32.11;24.32;100739.78;4953383;29;20047;-54
2022/08/08 11:02:48;;;;;;;2.85;1.13;;;;;;;32.18;24.48;100724.78;4953884;28;20416;-53
2022/08/08 11:05:15;;;;;;;2.25;1.10;;;;;;;32.44;24.54;100725.91;4953833;28;20043;-53
2022/08/08 11:07:46;;;;;;;1.30;1.00;;;;;;;32.72;24.60;100720.34;4954031;28;20408;-55
2022/08/08 11:10:14;;;;;;;1.77;1.17;;;;;;;32.77;24.42;100714.72;4953456;28;20041;-55
2022/08/08 11:12:53;;;;;;;2.05;0.90;;;;;;;33.30;24.13;100706.56;4954160;28;20102;-58
2022/08/08 11:15:23;;;;;;;3.03;1.08;;;;;;;33.73;23.46;100709.63;4953686;28;20035;-55
2022/08/08 11:17:50;;;;;;;1.15;0.93;;;;;;;33.70;23.49;100712.19;4953673;28;20074;-50
2022/08/08 11:20:17;;;;;;;3.53;1.02;;;;;;;33.26;23.63;100724.09;4953311;28;20123;-51
2022/08/08 11:22:48;;;;;;;1.35;1.00;;;;;;;33.15;23.66;100710.53;4953848;28;20035;-54
2022/08/08 11:25:14;;;;;;;2.67;1.13;;;;;;;33.08;23.67;100701.06;4953732;29;20035;-55
2022/08/08 11:27:41;;;;;;;3.50;1.23;;;;;;;32.81;24.50;100711.03;4953623;28;20043;-55
2022/08/08 11:30:08;;;;;;;1.10;0.90;;;;;;;33.30;23.86;100708.50;4952886;28;20027;-56
2022/08/08 11:32:41;;;;;;;3.33;1.33;;;;;;;33.33;23.99;100705.16;4953561;28;20046;-50
2022/08/08 11:35:12;;;;;;;1.38;1.10;;;;;;;33.85;23.65;100698.00;4953540;28;20428;-52
2022/08/08 11:37:42;;;;;;;2.33;1.05;;;;;;;34.07;22.50;100705.41;4953327;28;20069;-51
2022/08/08 11:40:10;;;;;;;1.20;1.00;;;;;;;34.14;23.34;100693.88;4953003;28;20039;-54
2022/08/08 11:42:37;;;;;;;2.20;1.10;;;;;;;34.32;22.38;100705.81;4948102;28;20035;-56
2022/08/08 11:45:05;;;;;;;0.95;0.90;;;;;;;34.14;22.92;100699.41;4944075;29;20035;-57
2022/08/08 11:47:32;;;;;;;0.95;0.90;;;;;;;34.65;22.00;100690.44;4941704;29;20469;-58
2022/08/08 11:49:59;;;;;;;;;;;;;;;34.39;21.65;100692.31;4936748;29;20486;-57
2022/08/08 11:52:25;;;;;;;2.85;0.93;;;;;;;34.73;21.83;100691.56;4934111;29;19914;-55
2022/08/08 11:54:51;;;;;;;0.90;0.90;;;;;;;34.62;21.93;100693.03;4933984;29;20046;-62
2022/08/08 11:57:17;;;;;;;1.90;0.95;;;;;;;35.31;21.67;100702.16;4934016;29;20440;-62
2022/08/08 11:59:51;;;;;;;1.73;1.00;;;;;;;35.52;21.41;100693.19;4933562;29;20082;-63
2022/08/08 12:02:17;;;;;;;1.98;0.98;;;;;;;34.80;20.59;100689.94;4934050;29;20050;-61
2022/08/08 12:04:42;;;;;;;1.87;1.00;;;;;;;35.55;19.80;100690.56;4934158;29;20478;-63
2022/08/08 12:07:08;;;;;;;1.03;0.80;;;;;;;35.21;20.78;100685.91;4934127;29;20075;-63
2022/08/08 12:09:34;;;;;;;1.63;1.07;;;;;;;35.44;20.49;100680.16;4933762;29;20043;-62
2022/08/08 12:12:00;;;;;;;1.30;1.10;;;;;;;35.68;19.72;100668.53;4936965;29;20039;-63
2022/08/08 12:14:26;;;;;;;2.27;0.90;;;;;;;35.87;19.91;100680.84;4937744;29;20040;-62
2022/08/08 12:16:52;;;;;;;2.05;0.90;;;;;;;35.71;19.29;100673.41;4937839;29;20038;-61
2022/08/08 12:19:20;;;;;;;1.38;0.90;;;;;;;35.76;19.28;100674.03;4936121;29;20035;-62
2022/08/08 12:21:45;;;;;;;1.85;0.80;;;;;;;35.83;19.46;100677.09;4937663;29;20858;-62
2022/08/08 12:24:22;;;;;;;1.17;0.80;;;;;;;35.70;19.78;100672.59;4937638;29;20036;-62
2022/08/08 12:26:51;;;;;;;;;;;;;;;34.90;20.36;100671.41;4940546;29;20035;-59
2022/08/08 12:29:26;;;;;;;1.20;1.05;;;;;;;35.13;20.11;100670.09;4946046;29;19926;-62
2022/08/08 12:32:13;;;;;;;1.15;0.90;;;;;;;35.63;20.40;100674.25;4954359;29;20040;-62
2022/08/08 12:34:55;;;;;;;2.75;0.98;;;;;;;35.63;20.66;100671.47;4956565;28;20039;-60
2022/08/08 12:37:21;;;;;;;2.03;0.90;;;;;;;35.77;19.21;100666.53;4956712;29;20097;-62
2022/08/08 12:39:47;;;;;;;;;;;;;;;36.12;19.31;100678.28;4956619;28;20043;-61
2022/08/08 12:42:13;;;;;;;3.40;0.93;;;;;;;36.16;18.90;100662.59;4957167;29;20356;-61
2022/08/08 12:44:40;;;;;;;3.83;1.15;;;;;;;35.64;19.41;100659.25;4956120;29;20043;-63
2022/08/08 12:47:06;;;;;;;0.70;0.70;;;;;;;36.11;19.82;100660.84;4957555;28;20054;-63
2022/08/08 12:49:34;;;;;;;1.48;1.00;;;;;;;36.36;19.09;100661.00;4956270;29;20382;-62
2022/08/08 12:52:01;;;;;;;1.48;0.88;;;;;;;36.04;18.76;100648.66;4949473;28;20374;-61
2022/08/08 12:54:31;;;;;;;2.70;1.17;;;;;;;36.26;19.38;100659.47;4953279;29;20102;-60
2022/08/08 12:56:58;;;;;;;1.52;0.88;;;;;;;35.53;19.99;100664.31;4956181;28;20042;-61
2022/08/08 12:59:28;;;;;;;2.22;0.88;;;;;;;35.87;19.38;100658.66;4955645;29;20043;-60
2022/08/08 13:01:56;;;;;;;1.58;1.10;;;;;;;36.33;18.14;100661.69;4956082;28;20039;-60
2022/08/08 13:04:23;;;;;;;1.27;0.80;;;;;;;36.58;18.96;100648.78;4956082;28;20045;-60
2022/08/08 13:07:04;;;;;;;0.88;0.75;;;;;;;37.16;18.18;100649.75;4956027;28;20040;-59
2022/08/08 13:09:41;;;;;;;1.63;1.00;;;;;;;35.98;17.87;100652.75;4955791;28;20420;-59
2022/08/08 13:12:27;;;;;;;1.30;0.80;;;;;;;36.34;17.99;100644.72;4950813;28;20063;-59
2022/08/08 13:14:55;;;;;;;1.33;0.82;;;;;;;36.66;18.04;100653.47;4936695;29;20036;-60
2022/08/08 13:17:22;;;;;;;4.57;1.20;;;;;;;36.51;17.96;100654.88;4935399;29;20051;-59
2022/08/08 13:19:48;;;;;;;2.33;0.90;;;;;;;36.40;18.58;100650.91;4936076;29;20107;-60
2022/08/08 13:22:17;;;;;;;0.95;0.63;;;;;;;36.20;17.87;100640.59;4935388;29;20446;-59
2022/08/08 13:24:43;;;;;;;1.23;0.80;;;;;;;37.03;17.89;100648.91;4936300;29;20131;-60
2022/08/08 13:27:10;;;;;;;;;;;;;;;37.00;17.95;100646.03;4941833;29;20047;-59
2022/08/08 13:29:45;;;;;;;1.73;0.80;;;;;;;36.95;17.46;100641.50;4935825;29;20001;-60
2022/08/08 13:32:11;;;;;;;1.25;0.80;;;;;;;36.62;17.70;100646.97;4936480;29;20064;-60
2022/08/08 13:34:38;;;;;;;0.90;0.70;;;;;;;36.13;18.12;100638.34;4936418;29;20027;-59
2022/08/08 13:37:08;;;;;;;2.00;0.90;;;;;;;36.61;18.49;100635.06;4936570;29;20037;-61
2022/08/08 13:39:35;;;;;;;1.00;0.90;;;;;;;34.38;19.31;100638.97;4935935;29;20489;-53
2022/08/08 13:42:00;;;;;;;;;;;;;;;34.35;19.99;100642.38;4936670;29;20039;-57
2022/08/08 13:44:30;;;;;;;3.47;0.90;;;;;;;34.07;20.08;100641.84;4936301;29;20009;-55
2022/08/08 13:47:00;;;;;;;0.90;0.80;;;;;;;33.77;20.46;100634.41;4936675;29;20039;-55
2022/08/08 13:49:30;;;;;;;1.27;0.82;;;;;;;33.68;20.63;100632.44;4936072;29;20052;-55
2022/08/08 13:52:00;;;;;;;1.77;0.95;;;;;;;33.29;20.53;100624.91;4936764;29;20354;-54
2022/08/08 13:54:29;;;;;;;1.00;0.90;;;;;;;33.23;20.12;100626.16;4935837;29;20046;-55
2022/08/08 13:57:07;;;;;;;1.58;1.00;;;;;;;32.99;20.62;100633.94;4936083;29;20082;-56
2022/08/08 13:59:34;;;;;;;2.45;1.10;;;;;;;33.16;21.12;100621.09;4935594;29;20040;-57
2022/08/08 14:02:01;;;;;;;1.63;1.00;;;;;;;32.30;20.84;100614.84;4936021;29;20481;-52
2022/08/08 14:04:27;;;;;;;1.00;0.93;;;;;;;32.36;21.08;100613.63;4935860;29;20032;-56
2022/08/08 14:07:00;;;;;;;2.90;0.93;;;;;;;32.24;21.09;100627.09;4936022;29;20054;-51
2022/08/08 14:09:33;;;;;;;0.85;0.60;;;;;;;32.23;20.47;100617.22;4935392;29;20059;-56
2022/08/08 14:11:59;;;;;;;1.55;0.93;;;;;;;32.06;21.00;100618.66;4935793;29;20126;-51
2022/08/08 14:14:44;;;;;;;2.33;0.98;;;;;;;31.98;21.24;100618.56;4935895;29;20076;-55
2022/08/08 14:17:12;;;;;;;1.45;0.73;;;;;;;31.69;21.57;100613.31;4935546;29;20049;-55
2022/08/08 14:19:42;;;;;;;1.02;0.75;;;;;;;31.55;21.09;100619.63;4935153;29;20051;-55
2022/08/08 14:22:24;;;;;;;1.90;0.80;;;;;;;31.55;22.07;100608.63;4935669;29;20039;-49
2022/08/08 14:25:00;;;;;;;0.90;0.90;;;;;;;31.17;21.83;100609.84;4935571;29;20413;-54
2022/08/08 14:27:30;;;;;;;1.88;0.90;;;;;;;30.86;22.38;100604.09;4935557;29;20560;-54
2022/08/08 14:30:08;;;;;;;3.60;1.00;;;;;;;30.99;21.85;100604.13;4934975;29;20036;-54
2022/08/08 14:32:35;;;;;;;1.17;0.90;;;;;;;31.15;22.25;100603.84;4934942;29;20043;-55
2022/08/08 14:35:04;;;;;;;;;;;;;;;30.92;21.95;100605.63;4935711;29;20031;-49
2022/08/08 14:37:37;;;;;;;1.90;1.00;;;;;;;31.06;22.46;100607.31;4935295;29;19914;-54
2022/08/08 14:40:03;;;;;;;6.35;1.20;;;;;;;31.09;22.48;100603.13;4934692;29;20488;-55
2022/08/08 14:42:39;;;;;;;1.30;0.90;;;;;;;30.88;22.05;100608.16;4935203;29;20183;-51
2022/08/08 14:45:10;;;;;;;2.33;0.90;;;;;;;30.83;22.78;100597.22;4935153;29;20051;-52
2022/08/08 14:47:45;;;;;;;1.10;1.00;;;;;;;30.78;23.18;100597.34;4935018;29;20058;-54
2022/08/08 14:50:14;;;;;;;1.52;1.05;;;;;;;30.58;23.46;100594.84;4934639;29;20043;-49
2022/08/08 14:52:46;;;;;;;1.30;1.00;;;;;;;30.72;23.65;100593.03;4935105;29;20162;-56
2022/08/08 14:55:11;;;;;;;1.15;1.00;;;;;;;30.81;23.57;100596.72;4935184;29;20066;-50
2022/08/08 14:57:38;;;;;;;3.03;1.02;;;;;;;30.60;23.55;100595.38;4934984;29;20068;-50
2022/08/08 15:00:05;;;;;;;1.17;1.00;;;;;;;30.64;23.29;100593.66;4933183;29;20040;-54
2022/08/08 15:02:31;;;;;;;1.85;1.05;;;;;;;30.52;24.43;100592.19;4949622;28;20047;-51
2022/08/08 15:04:59;;;;;;;1.90;1.15;;;;;;;30.60;23.94;100584.41;4934578;29;20046;-61
2022/08/08 15:07:24;;;;;;;0.95;0.85;;;;;;;30.65;24.47;100576.06;4934699;29;20444;-60
2022/08/08 15:09:50;;;;;;;2.78;1.13;;;;;;;30.70;24.20;100574.06;4934279;29;20127;-58
2022/08/08 15:12:15;;;;;;;2.20;1.10;;;;;;;30.78;24.20;100578.09;4934757;29;20043;-61
2022/08/08 15:14:42;;;;;;;1.60;0.90;;;;;;;30.74;23.82;100585.28;4934752;29;20130;-61
2022/08/08 15:17:07;;;;;;;1.52;1.00;;;;;;;30.54;23.95;100575.41;4934750;29;20078;-59
2022/08/08 15:19:33;;;;;;;1.92;1.00;;;;;;;30.55;23.92;100582.53;4934037;29;20111;-55
2022/08/08 15:21:58;;;;;;;1.40;1.00;;;;;;;30.37;24.33;100580.59;4934541;29;20044;-58
2022/08/08 15:24:24;;;;;;;3.70;1.23;;;;;;;30.49;24.44;100584.53;4934488;29;20047;-53
2022/08/08 15:26:50;;;;;;;1.20;1.00;;;;;;;30.48;24.23;100585.66;4934398;29;20054;-53
2022/08/08 15:29:15;;;;;;;1.80;1.10;;;;;;;30.42;24.10;100581.34;4933968;29;20047;-53
2022/08/08 15:31:40;;;;;;;1.25;1.02;;;;;;;30.48;24.25;100593.09;4934382;29;20035;-57
2022/08/08 15:34:06;;;;;;;1.20;1.00;;;;;;;30.34;24.52;100587.53;4933139;29;20031;-52
2022/08/08 15:36:31;;;;;;;1.25;1.00;;;;;;;30.29;24.64;100584.84;4934519;29;20519;-56
2022/08/08 15:38:57;;;;;;;2.15;1.10;;;;;;;30.21;24.31;100582.75;4934154;29;20454;-58
2022/08/08 15:41:22;;;;;;;1.58;1.13;;;;;;;30.28;24.88;100585.97;4934050;29;20062;-55
2022/08/08 15:43:47;;;;;;;2.42;1.42;;;;;;;30.28;24.67;100583.22;4934054;29;20043;-56
2022/08/08 15:46:13;;;;;;;3.17;1.30;;;;;;;30.30;24.31;100588.41;4933667;29;20063;-55
2022/08/08 15:48:39;;;;;;;0.80;0.80;;;;;;;30.27;24.13;100587.88;4934280;29;20048;-57
2022/08/08 15:51:05;;;;;;;4.03;1.00;;;;;;;30.29;24.13;100578.53;4933955;29;20047;-55
2022/08/08 15:53:31;;;;;;;1.73;1.17;;;;;;;30.21;24.34;100572.59;4934222;29;20051;-50
2022/08/08 15:55:56;;;;;;;2.83;0.98;;;;;;;30.18;24.32;100583.34;4934134;29;20059;-53